createdAt,value
2023-03-31T00:01:38.513Z,99170.28
2023-03-31T00:04:05.456Z,99171.63
2023-03-31T00:06:37.318Z,99177.47
2023-03-31T00:09:06.430Z,99185.09
2023-03-31T00:11:33.146Z,99181.44
2023-03-31T00:13:59.543Z,99173.63
2023-03-31T00:16:26.132Z,99161.66
2023-03-31T00:18:52.688Z,99173.13
2023-03-31T00:21:23.944Z,99175.63
2023-03-31T00:23:55.346Z,99185.16
2023-03-31T00:26:22.023Z,99178.19
2023-03-31T00:28:52.023Z,99191.47
2023-03-31T00:31:19.416Z,99191.97
2023-03-31T00:33:46.334Z,99184.16
2023-03-31T00:36:13.199Z,99188.81
2023-03-31T00:38:39.645Z,99190.63
2023-03-31T00:41:05.993Z,99179.50
2023-03-31T00:43:36.423Z,99181.84
2023-03-31T00:46:27.452Z,99192.00
2023-03-31T00:48:57.135Z,99206.78
2023-03-31T00:51:27.453Z,99202.13
2023-03-31T00:53:58.420Z,99207.28
2023-03-31T00:56:26.447Z,99218.56
2023-03-31T00:58:53.733Z,99218.38
2023-03-31T01:01:23.029Z,99216.06
2023-03-31T01:03:49.561Z,99212.91
2023-03-31T01:06:17.847Z,99206.41
2023-03-31T01:08:44.789Z,99207.25
2023-03-31T01:11:15.617Z,99206.75
2023-03-31T01:13:42.333Z,99189.66
2023-03-31T01:16:09.924Z,99182.16
2023-03-31T01:18:36.895Z,99178.19
2023-03-31T01:21:21.943Z,99154.56
2023-03-31T01:24:14.737Z,99151.56
2023-03-31T01:27:01.717Z,99134.78
2023-03-31T01:29:59.175Z,99139.59
2023-03-31T01:32:56.560Z,99145.13
2023-03-31T01:35:54.263Z,99156.28
2023-03-31T01:38:47.967Z,99165.22
2023-03-31T01:41:33.038Z,99177.03
2023-03-31T01:44:18.074Z,99184.03
2023-03-31T01:46:58.228Z,99176.03
2023-03-31T01:49:42.863Z,99167.06
2023-03-31T01:52:18.871Z,99185.16
2023-03-31T01:55:04.478Z,99186.50
2023-03-31T01:57:35.949Z,99174.50
2023-03-31T02:00:09.390Z,99168.53
2023-03-31T02:02:40.096Z,99171.84
2023-03-31T02:05:13.448Z,99182.66
2023-03-31T02:07:53.722Z,99187.00
2023-03-31T02:10:22.889Z,99207.78
2023-03-31T02:12:51.159Z,99218.72
2023-03-31T02:15:22.978Z,99233.34
2023-03-31T02:17:53.609Z,99241.66
2023-03-31T02:20:22.040Z,99244.63
2023-03-31T02:22:53.489Z,99242.78
2023-03-31T02:25:24.387Z,99266.25
2023-03-31T02:27:53.907Z,98469.31
2023-03-31T02:30:20.569Z,98424.09
2023-03-31T02:32:47.214Z,98416.19
2023-03-31T02:35:18.094Z,98401.50
2023-03-31T02:37:45.057Z,98390.94
2023-03-31T02:40:21.483Z,98381.25
2023-03-31T02:42:48.916Z,98370.69
2023-03-31T02:45:37.303Z,98380.53
2023-03-31T02:48:05.668Z,98443.25
2023-03-31T02:50:47.804Z,98497.38
2023-03-31T02:53:35.454Z,98487.66
2023-03-31T02:57:15.935Z,98481.75
2023-03-31T03:00:00.487Z,98478.91
2023-03-31T03:02:51.408Z,98462.13
2023-03-31T03:05:36.610Z,98460.47
2023-03-31T03:08:19.152Z,98447.16
2023-03-31T03:11:08.377Z,98445.50
2023-03-31T03:13:48.645Z,98432.19
2023-03-31T03:16:29.162Z,98424.59
2023-03-31T03:19:00.445Z,98416.38
2023-03-31T03:21:27.692Z,98406.56
2023-03-31T03:23:54.497Z,98403.91
2023-03-31T03:26:21.283Z,98402.84
2023-03-31T03:28:48.192Z,98396.06
2023-03-31T03:31:15.006Z,98385.59
2023-03-31T03:33:42.377Z,98375.34
2023-03-31T03:36:09.196Z,98371.19
2023-03-31T03:38:35.924Z,98373.19
2023-03-31T03:41:02.751Z,98362.72
2023-03-31T03:43:29.169Z,98342.81
2023-03-31T03:45:55.873Z,98325.41
2023-03-31T03:48:22.384Z,98315.09
2023-03-31T03:50:48.816Z,98304.66
2023-03-31T03:53:15.848Z,98296.25
2023-03-31T03:55:42.384Z,98267.69
2023-03-31T03:58:09.534Z,98261.34
2023-03-31T04:00:38.150Z,98234.31
2023-03-31T04:03:04.558Z,98222.41
2023-03-31T04:05:31.132Z,98208.66
2023-03-31T04:07:57.758Z,98175.50
2023-03-31T04:10:24.201Z,98169.53
2023-03-31T04:12:50.626Z,98148.00
2023-03-31T04:15:17.092Z,98133.28
2023-03-31T04:17:43.546Z,98117.72
2023-03-31T04:20:10.725Z,98102.56
2023-03-31T04:22:38.311Z,98088.22
2023-03-31T04:25:05.334Z,98062.81
2023-03-31T04:27:32.129Z,98035.38
2023-03-31T04:29:58.484Z,98023.69
2023-03-31T04:32:25.223Z,98007.31
2023-03-31T04:34:51.973Z,97992.56
2023-03-31T04:37:18.690Z,97960.25
2023-03-31T04:39:45.134Z,97954.31
2023-03-31T04:42:11.484Z,97960.84
2023-03-31T04:44:37.901Z,97943.88
2023-03-31T04:47:04.687Z,97932.41
2023-03-31T04:49:31.429Z,97936.09
2023-03-31T04:51:57.953Z,97932.22
2023-03-31T04:54:24.486Z,97920.16
2023-03-31T04:56:50.871Z,97924.09
2023-03-31T04:59:17.298Z,97908.94
2023-03-31T05:01:43.835Z,97905.06
2023-03-31T05:04:10.539Z,97916.13
2023-03-31T05:06:36.929Z,97911.81
2023-03-31T05:09:03.477Z,97908.16
2023-03-31T05:11:30.228Z,97902.22
2023-03-31T05:13:56.611Z,97918.78
2023-03-31T05:16:23.086Z,97912.88
2023-03-31T05:18:49.588Z,97905.91
2023-03-31T05:21:18.375Z,97926.38
2023-03-31T05:23:46.974Z,97932.50
2023-03-31T05:26:13.978Z,97930.47
2023-03-31T05:28:41.728Z,97937.41
2023-03-31T05:31:09.610Z,97951.13
2023-03-31T05:33:36.213Z,97948.69
2023-03-31T05:36:02.668Z,97956.25
2023-03-31T05:38:29.137Z,97956.84
2023-03-31T05:40:56.832Z,97956.66
2023-03-31T05:43:23.427Z,97961.38
2023-03-31T05:45:49.866Z,97953.19
2023-03-31T05:48:16.283Z,97945.41
2023-03-31T05:50:42.683Z,97929.25
2023-03-31T05:53:09.271Z,97915.94
2023-03-31T05:55:36.524Z,97915.94
2023-03-31T05:58:02.970Z,97913.06
2023-03-31T06:00:29.368Z,97877.47
2023-03-31T06:02:55.853Z,97858.03
2023-03-31T06:05:22.497Z,97837.75
2023-03-31T06:07:48.854Z,97817.09
2023-03-31T06:10:15.328Z,97806.84
2023-03-31T06:12:41.832Z,97796.59
2023-03-31T06:15:08.655Z,97764.91
2023-03-31T06:17:36.838Z,97758.78
2023-03-31T06:20:19.734Z,97740.34
2023-03-31T06:22:52.917Z,97731.94
2023-03-31T06:25:20.379Z,97731.13
2023-03-31T06:27:46.921Z,97713.94
2023-03-31T06:30:13.671Z,97704.56
2023-03-31T06:32:40.996Z,97690.41
2023-03-31T06:35:08.085Z,97680.97
2023-03-31T06:37:34.675Z,97677.28
2023-03-31T06:40:01.102Z,97689.16
2023-03-31T06:42:27.608Z,97690.19
2023-03-31T06:44:54.216Z,97669.94
2023-03-31T06:47:20.653Z,97673.19
2023-03-31T06:49:47.472Z,97675.28
2023-03-31T06:52:13.885Z,97678.13
2023-03-31T06:54:40.317Z,97678.94
2023-03-31T06:57:06.814Z,97694.69
2023-03-31T06:59:33.705Z,97702.25
2023-03-31T07:02:00.380Z,97726.00
2023-03-31T07:04:26.844Z,97747.47
2023-03-31T07:06:53.491Z,97758.09
2023-03-31T07:09:20.135Z,97755.63
2023-03-31T07:11:46.876Z,97762.75
2023-03-31T07:14:13.269Z,97774.22
2023-03-31T07:16:39.799Z,97773.81
2023-03-31T07:19:07.370Z,97783.03
2023-03-31T07:21:34.107Z,97760.28
2023-03-31T07:24:00.681Z,97716.03
2023-03-31T07:26:27.102Z,97739.75
2023-03-31T07:28:53.750Z,97755.69
2023-03-31T07:31:21.255Z,97744.97
2023-03-31T07:33:47.704Z,97635.03
2023-03-31T07:36:14.451Z,97699.06
2023-03-31T07:38:43.673Z,97755.16
2023-03-31T07:41:13.141Z,97812.38
2023-03-31T07:43:40.022Z,97879.38
2023-03-31T07:46:07.102Z,97943.75
2023-03-31T07:48:34.413Z,98040.31
2023-03-31T07:51:00.879Z,98099.38
2023-03-31T07:53:27.335Z,98174.88
2023-03-31T07:55:53.773Z,98188.81
2023-03-31T07:58:20.286Z,98201.25
2023-03-31T08:00:46.666Z,98217.66
2023-03-31T08:03:13.471Z,98355.91
2023-03-31T08:05:39.937Z,98327.13
2023-03-31T08:08:06.374Z,98366.97
2023-03-31T08:10:32.829Z,98405.66
2023-03-31T08:12:59.572Z,98331.28
2023-03-31T08:15:26.089Z,98289.91
2023-03-31T08:17:52.426Z,98315.19
2023-03-31T08:20:19.091Z,98277.81
2023-03-31T08:22:45.938Z,98249.03
2023-03-31T08:25:12.459Z,98219.69
2023-03-31T08:27:40.974Z,98274.50
2023-03-31T08:30:13.370Z,98223.69
2023-03-31T08:32:40.130Z,98178.09
2023-03-31T08:35:07.494Z,98159.09
2023-03-31T08:37:34.313Z,98104.44
2023-03-31T08:40:00.718Z,98069.88
2023-03-31T08:42:41.948Z,98079.41
2023-03-31T08:45:23.170Z,98057.88
2023-03-31T08:47:55.229Z,98032.09
2023-03-31T08:50:27.727Z,98047.63
2023-03-31T08:53:17.598Z,97991.31
2023-03-31T08:55:49.370Z,97943.19
2023-03-31T08:58:31.065Z,97953.38
2023-03-31T09:01:21.808Z,97915.75
2023-03-31T09:04:16.376Z,97891.13
2023-03-31T09:07:11.273Z,97923.91
2023-03-31T09:10:03.140Z,97795.59
2023-03-31T09:12:49.547Z,97771.25
2023-03-31T09:15:44.189Z,97686.22
2023-03-31T09:18:32.490Z,97732.78
2023-03-31T09:21:10.506Z,97679.13
2023-03-31T09:23:43.848Z,97641.91
2023-03-31T09:26:23.453Z,97602.53
2023-03-31T09:28:53.084Z,97607.72
2023-03-31T09:31:22.415Z,97582.34
2023-03-31T09:33:53.216Z,97547.47
2023-03-31T09:36:22.923Z,97512.22
2023-03-31T09:38:50.381Z,97510.91
2023-03-31T09:41:18.043Z,97490.41
2023-03-31T09:43:49.155Z,97478.78
2023-03-31T09:46:33.761Z,97470.84
2023-03-31T09:49:07.009Z,97491.41
2023-03-31T09:51:38.521Z,97462.56
2023-03-31T09:54:19.838Z,97466.28
2023-03-31T09:56:59.427Z,97461.25
2023-03-31T09:59:36.215Z,97464.03
2023-03-31T10:02:21.790Z,97453.69
2023-03-31T10:04:53.214Z,97454.72
2023-03-31T10:07:23.705Z,97448.03
2023-03-31T10:09:52.077Z,97448.91
2023-03-31T10:12:26.552Z,97429.34
2023-03-31T10:15:02.218Z,97421.03
2023-03-31T10:17:29.117Z,97404.38
2023-03-31T10:20:00.276Z,97409.88
2023-03-31T10:22:32.135Z,97403.72
2023-03-31T10:25:16.973Z,97400.19
2023-03-31T10:27:47.531Z,97411.50
2023-03-31T10:30:22.041Z,97406.66
2023-03-31T10:32:51.380Z,97418.25
2023-03-31T10:35:27.760Z,97429.59
2023-03-31T10:37:57.588Z,97392.38
2023-03-31T10:40:32.066Z,97388.88
2023-03-31T10:43:15.624Z,97392.88
2023-03-31T10:45:49.482Z,97399.69
2023-03-31T10:48:39.416Z,97382.13
2023-03-31T10:51:27.582Z,97385.41
2023-03-31T10:54:02.119Z,97383.25
2023-03-31T10:56:48.275Z,97363.78
2023-03-31T10:59:29.068Z,97369.28
2023-03-31T11:04:49.258Z,97359.78
2023-03-31T11:07:39.906Z,97349.78
2023-03-31T11:10:25.178Z,97349.00
2023-03-31T11:13:14.059Z,97342.78
2023-03-31T11:15:58.353Z,97342.56
2023-03-31T11:19:13.063Z,97335.78
2023-03-31T11:22:04.069Z,97314.19
2023-03-31T11:24:53.879Z,97322.72
2023-03-31T11:27:26.951Z,97352.09
2023-03-31T11:30:09.135Z,97419.34
2023-03-31T11:32:47.140Z,97513.22
2023-03-31T11:35:13.695Z,97749.09
2023-03-31T11:37:52.778Z,97956.09
2023-03-31T11:40:39.444Z,98149.91
2023-03-31T11:43:30.533Z,98309.41
2023-03-31T11:46:13.842Z,98371.78
2023-03-31T11:48:53.001Z,98390.47
2023-03-31T11:51:44.189Z,98369.75
2023-03-31T11:54:20.475Z,98392.31
2023-03-31T11:56:47.630Z,98347.44
2023-03-31T11:59:18.334Z,98329.66
2023-03-31T12:01:47.800Z,98320.50
2023-03-31T12:04:35.473Z,98258.41
2023-03-31T12:07:35.025Z,98172.47
2023-03-31T12:10:48.272Z,98116.94
2023-03-31T12:13:33.204Z,98050.13
2023-03-31T12:16:05.796Z,97940.13
2023-03-31T12:19:04.758Z,97903.53
2023-03-31T12:21:33.308Z,97944.31
2023-03-31T12:23:59.839Z,97896.97
2023-03-31T12:26:40.430Z,97849.59
2023-03-31T12:29:34.593Z,97801.09
2023-03-31T12:32:10.060Z,97757.34
2023-03-31T12:34:44.027Z,97826.91
2023-03-31T12:37:35.983Z,97658.22
2023-03-31T12:40:29.628Z,97633.16
2023-03-31T12:43:21.908Z,97560.22
2023-03-31T12:45:54.732Z,97569.66
2023-03-31T12:48:54.124Z,97559.00
2023-03-31T12:51:43.549Z,97535.31
2023-03-31T12:54:47.190Z,97489.00
2023-03-31T12:57:19.521Z,97436.00
2023-03-31T12:59:46.695Z,97434.47
2023-03-31T13:02:16.297Z,97420.47
2023-03-31T13:04:44.215Z,97427.97
2023-03-31T13:07:39.402Z,97438.09
2023-03-31T13:10:27.471Z,97421.97
2023-03-31T13:13:13.418Z,97393.13
2023-03-31T13:15:40.215Z,97391.47
2023-03-31T13:18:08.428Z,97378.78
2023-03-31T13:20:38.268Z,97384.34
2023-03-31T13:23:14.680Z,97375.22
2023-03-31T13:25:48.214Z,97385.41
2023-03-31T13:28:38.500Z,97388.91
2023-03-31T13:31:12.813Z,97394.94
2023-03-31T13:33:51.426Z,97387.22
2023-03-31T13:36:18.044Z,97402.84
2023-03-31T13:39:05.385Z,97388.47
2023-03-31T13:41:53.130Z,97404.66
2023-03-31T13:44:49.576Z,97432.19
2023-03-31T13:47:41.036Z,97479.28
2023-03-31T13:50:35.393Z,97575.66
2023-03-31T13:53:13.168Z,97751.09
2023-03-31T13:55:58.309Z,97902.56
2023-03-31T13:58:43.064Z,98009.50
2023-03-31T14:01:28.020Z,98059.91
2023-03-31T14:04:43.595Z,98067.16
2023-03-31T14:07:22.949Z,98067.84
2023-03-31T14:09:52.718Z,98053.53
2023-03-31T14:12:38.461Z,97999.78
2023-03-31T14:15:06.879Z,97946.31
2023-03-31T14:17:37.554Z,97980.47
2023-03-31T14:20:15.557Z,97940.50
2023-03-31T14:22:45.339Z,97879.88
2023-03-31T14:25:38.752Z,97875.78
2023-03-31T14:28:08.021Z,97831.38
2023-03-31T14:30:53.676Z,97729.31
2023-03-31T14:33:32.243Z,97727.59
2023-03-31T14:36:20.634Z,97663.84
2023-03-31T14:38:47.379Z,97720.09
2023-03-31T14:41:22.624Z,97727.63
2023-03-31T14:43:51.394Z,97703.41
2023-03-31T14:46:22.266Z,97656.91
2023-03-31T14:48:50.038Z,97679.78
2023-03-31T14:51:30.540Z,97714.75
2023-03-31T14:54:01.693Z,97677.44
2023-03-31T14:56:38.085Z,97605.50
2023-03-31T14:59:07.114Z,97604.88
2023-03-31T15:01:35.608Z,97621.00
2023-03-31T15:04:10.017Z,97658.59
2023-03-31T15:06:36.820Z,97632.31
2023-03-31T15:09:04.155Z,97577.91
2023-03-31T15:11:31.429Z,97536.88
2023-03-31T15:14:05.197Z,97575.13
2023-03-31T15:16:43.553Z,97559.34
2023-03-31T15:19:17.820Z,97521.34
2023-03-31T15:21:45.404Z,97519.31
2023-03-31T15:24:16.878Z,97496.63
2023-03-31T15:26:56.425Z,97464.19
2023-03-31T15:29:34.103Z,97499.34
2023-03-31T15:32:00.721Z,97453.53
2023-03-31T15:34:32.759Z,97445.44
2023-03-31T15:37:00.574Z,97453.81
2023-03-31T15:39:31.300Z,97430.16
2023-03-31T15:41:59.247Z,97441.50
2023-03-31T15:44:38.465Z,97495.53
2023-03-31T15:47:18.372Z,97480.91
2023-03-31T15:49:54.742Z,97453.03
2023-03-31T15:52:26.770Z,97503.84
2023-03-31T15:54:53.517Z,97486.91
2023-03-31T15:57:20.095Z,97489.97
2023-03-31T15:59:56.094Z,97462.03
2023-03-31T16:02:45.004Z,97470.00
2023-03-31T16:05:54.340Z,97498.69
2023-03-31T16:08:30.964Z,97493.16
2023-03-31T16:11:20.277Z,97507.91
2023-03-31T16:13:52.386Z,97502.09
2023-03-31T16:16:23.223Z,97512.91
2023-03-31T16:18:51.161Z,97522.56
2023-03-31T16:21:26.612Z,97544.53
2023-03-31T16:23:57.563Z,97552.19
2023-03-31T16:26:27.642Z,97553.13
2023-03-31T16:28:56.051Z,97580.41
2023-03-31T16:31:30.310Z,97590.41
2023-03-31T16:33:57.586Z,97606.44
2023-03-31T16:36:23.990Z,97616.56
2023-03-31T16:38:54.431Z,97621.56
2023-03-31T16:41:22.885Z,97655.69
2023-03-31T16:43:49.726Z,97632.09
2023-03-31T16:46:16.573Z,97652.31
2023-03-31T16:48:43.043Z,97638.25
2023-03-31T16:51:11.338Z,97617.00
2023-03-31T16:53:37.868Z,97612.78
2023-03-31T16:56:05.743Z,97606.75
2023-03-31T16:58:32.130Z,97638.31
2023-03-31T17:00:58.911Z,97669.41
2023-03-31T17:03:27.453Z,97704.91
2023-03-31T17:05:59.029Z,97719.56
2023-03-31T17:08:27.120Z,97707.81
2023-03-31T17:11:01.008Z,97689.91
2023-03-31T17:13:28.541Z,97700.78
2023-03-31T17:16:04.731Z,97686.91
2023-03-31T17:18:42.313Z,97700.25
2023-03-31T17:21:11.647Z,97711.00
2023-03-31T17:23:38.534Z,97698.34
2023-03-31T17:26:06.772Z,97746.19
2023-03-31T17:28:33.741Z,97735.34
2023-03-31T17:31:00.129Z,97725.56
2023-03-31T17:33:26.624Z,97720.44
2023-03-31T17:35:57.671Z,97718.81
2023-03-31T17:38:25.650Z,97715.56
2023-03-31T17:40:52.573Z,97722.00
2023-03-31T17:43:18.967Z,97724.47
2023-03-31T17:45:45.344Z,97734.78
2023-03-31T17:48:11.721Z,97738.06
2023-03-31T17:50:38.390Z,97743.84
2023-03-31T17:53:04.930Z,97735.84
2023-03-31T17:55:31.283Z,97739.56
2023-03-31T17:57:57.620Z,97749.03
2023-03-31T18:00:23.970Z,97752.69
2023-03-31T18:02:50.365Z,97762.72
2023-03-31T18:05:18.285Z,97776.69
2023-03-31T18:07:44.963Z,97801.34
2023-03-31T18:10:11.509Z,97807.91
2023-03-31T18:12:38.282Z,97819.19
2023-03-31T18:15:06.146Z,97815.47
2023-03-31T18:17:33.664Z,97833.97
2023-03-31T18:20:00.050Z,97850.22
2023-03-31T18:22:26.532Z,97868.47
2023-03-31T18:24:53.020Z,97890.78
2023-03-31T18:27:20.620Z,97890.78
2023-03-31T18:29:48.097Z,97893.25
2023-03-31T18:32:14.938Z,97907.81
2023-03-31T18:34:41.738Z,97927.28
2023-03-31T18:37:08.505Z,97936.09
2023-03-31T18:39:35.165Z,97929.97
2023-03-31T18:42:01.655Z,97933.44
2023-03-31T18:44:29.097Z,97931.81
2023-03-31T18:46:56.356Z,97958.25
2023-03-31T18:49:23.012Z,97945.34
2023-03-31T18:51:49.568Z,97949.22
2023-03-31T18:54:15.992Z,97957.00
2023-03-31T18:56:43.026Z,97973.25
2023-03-31T18:59:09.382Z,97979.00
2023-03-31T19:01:35.834Z,98011.81
2023-03-31T19:04:02.271Z,98029.00
2023-03-31T19:06:28.740Z,98038.22
2023-03-31T19:08:56.487Z,98029.19
2023-03-31T19:11:23.257Z,98043.38
2023-03-31T19:13:50.152Z,98047.25
2023-03-31T19:16:16.683Z,98059.97
2023-03-31T19:18:43.214Z,98048.25
2023-03-31T19:21:10.481Z,98039.03
2023-03-31T19:23:37.225Z,98021.22
2023-03-31T19:26:03.825Z,98017.53
2023-03-31T19:28:31.593Z,98022.06
2023-03-31T19:31:04.257Z,98002.75
2023-03-31T19:33:30.750Z,97989.44
2023-03-31T19:35:57.195Z,97958.06
2023-03-31T19:38:24.054Z,97938.59
2023-03-31T19:40:50.506Z,97935.53
2023-03-31T19:43:20.260Z,97928.75
2023-03-31T19:45:51.672Z,97924.03
2023-03-31T19:48:18.140Z,97929.19
2023-03-31T19:50:59.411Z,97920.97
2023-03-31T19:53:27.266Z,97921.59
2023-03-31T19:56:10.522Z,97919.78
2023-03-31T19:58:37.443Z,97940.06
2023-03-31T20:01:06.560Z,97963.84
2023-03-31T20:03:33.323Z,97961.81
2023-03-31T20:06:08.951Z,97960.34
2023-03-31T20:08:36.656Z,97939.88
2023-03-31T20:11:05.928Z,97914.41
2023-03-31T20:13:33.276Z,97915.06
2023-03-31T20:16:01.850Z,97915.66
2023-03-31T20:18:29.230Z,97907.66
2023-03-31T20:21:13.112Z,97902.94
2023-03-31T20:23:41.136Z,97898.84
2023-03-31T20:26:09.706Z,97915.25
2023-03-31T20:28:37.887Z,97926.97
2023-03-31T20:31:14.040Z,97902.72
2023-03-31T20:33:41.350Z,97889.22
2023-03-31T20:36:10.495Z,97904.34
2023-03-31T20:38:38.699Z,97906.22
2023-03-31T20:41:05.710Z,97932.84
2023-03-31T20:43:32.502Z,97949.25
2023-03-31T20:46:00.853Z,97964.22
2023-03-31T20:48:27.282Z,97988.00
2023-03-31T20:50:53.707Z,97999.06
2023-03-31T20:53:20.267Z,97999.28
2023-03-31T20:55:46.634Z,97975.72
2023-03-31T20:58:13.130Z,97993.75
2023-03-31T21:00:39.595Z,97963.44
2023-03-31T21:03:06.184Z,97956.25
2023-03-31T21:05:33.284Z,97932.44
2023-03-31T21:07:59.802Z,97942.50
2023-03-31T21:10:26.184Z,97919.34
2023-03-31T21:12:52.734Z,97917.69
2023-03-31T21:15:19.170Z,97910.47
2023-03-31T21:17:45.664Z,97898.19
2023-03-31T21:20:12.131Z,97929.97
2023-03-31T21:22:38.629Z,97936.34
2023-03-31T21:25:05.853Z,97931.41
2023-03-31T21:27:32.550Z,97952.31
2023-03-31T21:29:58.989Z,97923.41
2023-03-31T21:32:28.520Z,97928.31
2023-03-31T21:34:55.196Z,97908.84
2023-03-31T21:37:21.547Z,97909.25
2023-03-31T21:39:47.928Z,97917.06
2023-03-31T21:42:14.232Z,97942.50
2023-03-31T21:44:40.643Z,97910.50
2023-03-31T21:47:07.561Z,97912.97
2023-03-31T21:49:33.917Z,97908.44
2023-03-31T21:52:00.269Z,97916.66
2023-03-31T21:54:26.665Z,97905.78
2023-03-31T21:56:53.096Z,97907.84
2023-03-31T21:59:19.840Z,97886.72
2023-03-31T22:01:46.302Z,97887.13
2023-03-31T22:04:12.835Z,97892.47
2023-03-31T22:06:39.338Z,97920.34
2023-03-31T22:09:05.807Z,97915.81
2023-03-31T22:11:32.454Z,97934.69
2023-03-31T22:13:58.975Z,97958.66
2023-03-31T22:16:25.620Z,98012.19
2023-03-31T22:18:53.932Z,98010.53
2023-03-31T22:21:27.567Z,98002.78
2023-03-31T22:23:56.690Z,98022.03
2023-03-31T22:26:24.055Z,98037.63
2023-03-31T22:28:50.782Z,97999.50
2023-03-31T22:31:18.058Z,98006.69
2023-03-31T22:33:45.367Z,98015.91
2023-03-31T22:36:11.845Z,98032.09
2023-03-31T22:38:38.348Z,98027.78
2023-03-31T22:41:04.977Z,98008.13
2023-03-31T22:43:32.413Z,98001.78
2023-03-31T22:46:03.647Z,98008.31
2023-03-31T22:48:30.061Z,97970.22
2023-03-31T22:50:56.408Z,97991.53
2023-03-31T22:53:22.844Z,97993.38
2023-03-31T22:55:53.867Z,98010.59
2023-03-31T22:58:21.011Z,98028.34
2023-03-31T23:00:55.039Z,98058.69
2023-03-31T23:03:21.509Z,98053.13
2023-03-31T23:05:47.823Z,98046.19
2023-03-31T23:08:14.228Z,98049.25
2023-03-31T23:10:40.596Z,98078.94
2023-03-31T23:13:06.991Z,98077.31
2023-03-31T23:15:36.494Z,98056.41
2023-03-31T23:18:02.906Z,98077.72
2023-03-31T23:20:29.340Z,98064.19
2023-03-31T23:22:55.834Z,98064.41
2023-03-31T23:25:22.210Z,98067.66
2023-03-31T23:27:48.601Z,98095.13
2023-03-31T23:30:15.294Z,98086.69
2023-03-31T23:32:41.828Z,98080.38
2023-03-31T23:35:08.524Z,98069.09
2023-03-31T23:37:34.939Z,98092.63
2023-03-31T23:40:01.266Z,98100.84
2023-03-31T23:42:27.809Z,98129.66
2023-03-31T23:44:54.185Z,98120.47
2023-03-31T23:47:20.608Z,98123.13
2023-03-31T23:49:47.095Z,98118.03
2023-03-31T23:52:13.463Z,98132.16
2023-03-31T23:54:39.855Z,98156.50
2023-03-31T23:57:06.309Z,98167.78
2023-03-31T23:59:32.659Z,98172.25
